首页
METAR-TAF:

METAR-TAF

机场 :

Jinotega, 尼加拉瓜

纬度: 13-05N, 经度: 085-59W, 海拔: 985米

当前天气观测

该预报发布于2小时和37分钟前的23:00 UTC
静风
温度 28°C
湿度 55%
气压 1010 hPa
能見度: 5000
多云层高于1400英尺
烟,

METAR: MNJG 242300Z 00000KT 5000 FU BKN014 28/18 Q1010

时间: 19:37 (01:37 UTC)


TAF: 丢失

超过4000个机场的气象观测和天气预报(METAR&TAF报告)。

可查询的气象台以黄色和红色小点在地图上表示。

将鼠标移到小点上方,可查看气象台名称。

然后点击查看天气观测和预报。

如需切换地图:点击带黑十字的绿色按钮放大地图;点击带横线的绿色按钮缩小地图;或者点击绿色箭头查看邻近地区的地图。


METAR-TAF: